createdAt,value
2023-02-27T00:01:48.248Z,3.00
2023-02-27T00:04:15.856Z,3.00
2023-02-27T00:06:42.577Z,2.97
2023-02-27T00:09:09.196Z,2.97
2023-02-27T00:11:38.422Z,3.17
2023-02-27T00:14:05.512Z,2.90
2023-02-27T00:16:31.995Z,2.63
2023-02-27T00:19:01.170Z,2.90
2023-02-27T00:21:28.188Z,3.60
2023-02-27T00:23:55.376Z,2.75
2023-02-27T00:26:22.001Z,3.83
2023-02-27T00:28:48.777Z,2.90
2023-02-27T00:31:15.477Z,2.70
2023-02-27T00:33:43.090Z,3.10
2023-02-27T00:36:09.690Z,3.10
2023-02-27T00:38:36.195Z,2.75
2023-02-27T00:41:02.853Z,3.25
2023-02-27T00:43:29.593Z,2.92
2023-02-27T00:45:56.027Z,3.15
2023-02-27T00:48:22.667Z,3.42
2023-02-27T00:50:50.428Z,3.00
2023-02-27T00:53:17.403Z,3.22
2023-02-27T00:55:43.935Z,2.65
2023-02-27T00:58:10.426Z,3.08
2023-02-27T01:00:37.044Z,3.05
2023-02-27T01:03:03.907Z,2.50
2023-02-27T01:05:30.317Z,3.08
2023-02-27T01:07:56.783Z,2.05
2023-02-27T01:10:23.763Z,2.53
2023-02-27T01:12:50.380Z,2.70
2023-02-27T01:15:16.917Z,2.83
2023-02-27T01:17:43.774Z,3.15
2023-02-27T01:20:13.012Z,2.88
2023-02-27T01:22:39.648Z,2.72
2023-02-27T01:25:07.363Z,3.03
2023-02-27T01:27:36.829Z,2.70
2023-02-27T01:30:04.254Z,2.30
2023-02-27T01:32:30.721Z,2.92
2023-02-27T01:34:57.220Z,3.20
2023-02-27T01:37:23.658Z,2.47
2023-02-27T01:39:50.166Z,2.90
2023-02-27T01:42:25.009Z,2.83
2023-02-27T01:45:16.453Z,2.45
2023-02-27T01:47:47.310Z,2.40
2023-02-27T01:50:14.636Z,1.88
2023-02-27T01:52:45.718Z,2.63
2023-02-27T01:55:14.618Z,2.42
2023-02-27T01:57:43.017Z,2.25
2023-02-27T02:00:10.558Z,1.90
2023-02-27T02:02:40.724Z,2.10
2023-02-27T02:05:07.785Z,2.60
2023-02-27T02:07:38.436Z,2.00
2023-02-27T02:10:06.411Z,2.20
2023-02-27T02:12:36.832Z,2.35
2023-02-27T02:15:04.349Z,2.53
2023-02-27T02:17:40.331Z,2.03
2023-02-27T02:20:28.520Z,1.90
2023-02-27T02:23:20.712Z,2.42
2023-02-27T02:26:33.565Z,2.35
2023-02-27T02:29:51.471Z,2.03
2023-02-27T02:32:37.537Z,1.95
2023-02-27T02:35:23.465Z,2.17
2023-02-27T02:38:27.308Z,2.13
2023-02-27T02:41:05.580Z,2.00
2023-02-27T02:43:58.032Z,2.53
2023-02-27T02:46:46.331Z,2.17
2023-02-27T02:49:26.635Z,2.30
2023-02-27T02:52:34.968Z,1.80
2023-02-27T02:55:44.236Z,2.40
2023-02-27T02:58:27.858Z,2.20
2023-02-27T03:01:12.039Z,1.90
2023-02-27T03:03:53.214Z,1.65
2023-02-27T03:06:27.574Z,1.45
2023-02-27T03:08:59.383Z,1.80
2023-02-27T03:11:33.025Z,1.90
2023-02-27T03:14:45.732Z,2.03
2023-02-27T03:17:22.352Z,1.50
2023-02-27T03:19:59.684Z,1.70
2023-02-27T03:22:32.493Z,1.63
2023-02-27T03:25:02.162Z,1.88
2023-02-27T03:27:35.376Z,1.65
2023-02-27T03:30:10.917Z,2.15
2023-02-27T03:32:53.048Z,1.77
2023-02-27T03:35:19.933Z,2.08
2023-02-27T03:38:03.467Z,2.25
2023-02-27T03:40:49.157Z,1.48
2023-02-27T03:43:58.603Z,1.70
2023-02-27T03:46:28.105Z,1.90
2023-02-27T03:48:54.634Z,1.42
2023-02-27T03:51:25.164Z,2.10
2023-02-27T03:54:06.724Z,1.40
2023-02-27T03:56:56.370Z,1.30
2023-02-27T03:59:26.106Z,2.15
2023-02-27T04:01:54.266Z,0.93
2023-02-27T04:04:22.592Z,1.30
2023-02-27T04:07:14.893Z,1.52
2023-02-27T04:09:47.111Z,1.13
2023-02-27T04:12:35.454Z,1.65
2023-02-27T04:15:23.702Z,1.48
2023-02-27T04:18:14.808Z,1.40
2023-02-27T04:20:44.883Z,1.80
2023-02-27T04:23:46.256Z,1.50
2023-02-27T04:26:22.372Z,1.38
2023-02-27T04:29:02.337Z,1.55
2023-02-27T04:31:40.271Z,1.60
2023-02-27T04:34:21.109Z,0.93
2023-02-27T04:36:56.164Z,1.98
2023-02-27T04:39:31.970Z,1.40
2023-02-27T04:42:05.775Z,1.52
2023-02-27T04:44:36.121Z,1.63
2023-02-27T04:47:06.723Z,1.40
2023-02-27T04:49:48.683Z,1.70
2023-02-27T04:52:40.852Z,1.55
2023-02-27T04:55:42.308Z,1.45
2023-02-27T04:58:16.914Z,1.40
2023-02-27T05:00:47.696Z,2.00
2023-02-27T05:03:27.933Z,1.65
2023-02-27T05:05:59.198Z,1.30
2023-02-27T05:08:43.775Z,1.75
2023-02-27T05:11:23.138Z,2.10
2023-02-27T05:14:01.811Z,1.42
2023-02-27T05:16:35.767Z,1.73
2023-02-27T05:19:03.642Z,2.05
2023-02-27T05:21:33.061Z,1.60
2023-02-27T05:24:19.778Z,1.48
2023-02-27T05:27:01.532Z,2.72
2023-02-27T05:29:33.294Z,2.30
2023-02-27T05:32:20.881Z,1.80
2023-02-27T05:34:51.372Z,1.60
2023-02-27T05:37:23.409Z,1.50
2023-02-27T05:39:52.350Z,1.17
2023-02-27T05:42:30.797Z,1.75
2023-02-27T05:45:05.766Z,2.10
2023-02-27T05:47:37.523Z,2.05
2023-02-27T05:50:15.626Z,1.70
2023-02-27T05:52:43.430Z,2.53
2023-02-27T05:55:24.283Z,2.20
2023-02-27T05:57:56.462Z,2.28
2023-02-27T06:00:38.614Z,2.17
2023-02-27T06:03:08.462Z,2.00
2023-02-27T06:05:37.452Z,2.20
2023-02-27T06:08:04.104Z,2.78
2023-02-27T06:10:30.746Z,2.72
2023-02-27T06:12:57.330Z,1.92
2023-02-27T06:15:23.883Z,2.28
2023-02-27T06:17:50.332Z,2.08
2023-02-27T06:20:17.098Z,2.65
2023-02-27T06:22:43.623Z,2.55
2023-02-27T06:25:10.463Z,2.65
2023-02-27T06:27:37.079Z,2.88
2023-02-27T06:30:03.853Z,2.78
2023-02-27T06:32:30.313Z,2.70
2023-02-27T06:34:56.762Z,3.40
2023-02-27T06:37:23.337Z,2.78
2023-02-27T06:39:49.810Z,2.35
2023-02-27T06:42:16.546Z,3.20
2023-02-27T06:44:43.095Z,3.63
2023-02-27T06:47:09.590Z,3.55
2023-02-27T06:49:36.235Z,3.20
2023-02-27T06:52:02.667Z,2.97
2023-02-27T06:54:29.306Z,2.92
2023-02-27T06:56:56.351Z,3.40
2023-02-27T06:59:22.794Z,3.20
2023-02-27T07:01:49.180Z,3.45
2023-02-27T07:04:15.901Z,2.58
2023-02-27T07:07:33.908Z,3.10
2023-02-27T07:09:29.020Z,3.55
2023-02-27T07:11:55.506Z,5.78
2023-02-27T07:14:23.419Z,7.80
2023-02-27T07:16:53.939Z,8.18
2023-02-27T07:19:24.436Z,3.92
2023-02-27T07:21:51.024Z,3.20
2023-02-27T07:24:17.852Z,3.22
2023-02-27T07:26:44.358Z,2.95
2023-02-27T07:29:10.934Z,2.80
2023-02-27T07:31:37.724Z,3.03
2023-02-27T07:34:04.487Z,2.65
2023-02-27T07:36:31.560Z,3.13
2023-02-27T07:38:58.366Z,3.20
2023-02-27T07:41:30.782Z,3.13
2023-02-27T07:43:58.148Z,3.03
2023-02-27T07:46:27.443Z,2.50
2023-02-27T07:48:54.756Z,3.10
2023-02-27T07:51:21.584Z,2.63
2023-02-27T07:53:48.461Z,2.70
2023-02-27T07:56:15.111Z,2.40
2023-02-27T07:58:41.603Z,2.47
2023-02-27T08:01:08.115Z,2.17
2023-02-27T08:03:34.776Z,2.78
2023-02-27T08:06:02.454Z,2.08
2023-02-27T08:08:29.726Z,2.15
2023-02-27T08:10:56.373Z,2.40
2023-02-27T08:13:35.933Z,2.13
2023-02-27T08:16:09.616Z,2.10
2023-02-27T08:18:36.128Z,2.60
2023-02-27T08:21:04.872Z,2.40
2023-02-27T08:23:32.599Z,2.85
2023-02-27T08:25:59.032Z,2.15
2023-02-27T08:28:25.550Z,2.22
2023-02-27T08:30:52.055Z,2.80
2023-02-27T08:33:18.648Z,1.90
2023-02-27T08:35:45.410Z,2.00
2023-02-27T08:38:12.018Z,2.25
2023-02-27T08:40:38.576Z,1.92
2023-02-27T08:43:05.297Z,3.05
2023-02-27T08:45:31.751Z,2.65
2023-02-27T08:47:58.264Z,2.72
2023-02-27T08:50:24.871Z,1.75
2023-02-27T08:52:51.575Z,2.05
2023-02-27T08:55:18.095Z,3.00
2023-02-27T08:57:44.712Z,2.70
2023-02-27T09:00:14.662Z,1.65
2023-02-27T09:02:41.642Z,1.50
2023-02-27T09:05:08.625Z,1.85
2023-02-27T09:07:35.051Z,1.52
2023-02-27T09:10:01.480Z,1.70
2023-02-27T09:12:28.008Z,1.65
2023-02-27T09:14:54.835Z,2.00
2023-02-27T09:17:24.352Z,1.95
2023-02-27T09:19:51.366Z,2.00
2023-02-27T09:22:19.706Z,1.88
2023-02-27T09:24:47.341Z,1.85
2023-02-27T09:27:14.150Z,1.40
2023-02-27T09:29:41.057Z,2.35
2023-02-27T09:32:07.854Z,1.70
2023-02-27T09:34:35.822Z,1.73
2023-02-27T09:37:02.309Z,0.88
2023-02-27T09:39:30.245Z,1.42
2023-02-27T09:42:05.312Z,1.40
2023-02-27T09:44:47.309Z,1.88
2023-02-27T09:47:40.122Z,1.73
2023-02-27T09:50:17.778Z,2.15
2023-02-27T09:52:45.128Z,1.08
2023-02-27T09:55:17.560Z,0.90
2023-02-27T09:57:51.933Z,1.30
2023-02-27T10:00:37.159Z,0.80
2023-02-27T10:03:37.466Z,1.55
2023-02-27T10:06:27.442Z,1.60
2023-02-27T10:09:14.451Z,1.80
2023-02-27T10:12:22.384Z,3.28
2023-02-27T10:15:24.088Z,1.20
2023-02-27T10:18:00.323Z,1.55
2023-02-27T10:20:34.080Z,1.10
2023-02-27T10:23:10.657Z,1.20
2023-02-27T10:25:43.872Z,1.13
2023-02-27T10:28:15.752Z,1.00
2023-02-27T10:30:47.144Z,0.90
2023-02-27T10:33:13.676Z,0.80
2023-02-27T10:35:43.463Z,1.13
2023-02-27T10:38:37.575Z,0.80
2023-02-27T10:41:05.982Z,1.15
2023-02-27T10:43:33.329Z,1.02
2023-02-27T10:46:02.572Z,0.70
2023-02-27T10:48:31.841Z,0.80
2023-02-27T10:51:21.681Z,1.13
2023-02-27T10:56:24.546Z,0.80
2023-02-27T10:59:04.456Z,1.00
2023-02-27T11:02:20.737Z,0.80
2023-02-27T11:04:53.859Z,1.00
2023-02-27T11:07:28.839Z,0.90
2023-02-27T11:10:01.087Z,1.17
2023-02-27T11:12:33.325Z,1.20
2023-02-27T11:15:25.586Z,0.45
2023-02-27T11:17:53.224Z,1.77
2023-02-27T11:20:43.294Z,0.63
2023-02-27T11:23:17.628Z,1.25
2023-02-27T11:25:44.749Z,0.60
2023-02-27T11:28:20.664Z,1.05
2023-02-27T11:30:57.692Z,1.00
2023-02-27T11:33:25.639Z,0.85
2023-02-27T11:35:57.737Z,1.17
2023-02-27T11:38:28.470Z,0.70
2023-02-27T11:40:58.384Z,0.93
2023-02-27T11:43:31.065Z,0.70
2023-02-27T11:46:31.524Z,0.88
2023-02-27T11:48:55.364Z,1.00
2023-02-27T11:54:06.146Z,1.20
2023-02-27T11:56:43.896Z,0.88
2023-02-27T11:59:10.330Z,0.77
2023-02-27T12:02:05.381Z,0.75
2023-02-27T12:04:50.171Z,0.80
2023-02-27T12:07:17.262Z,0.70
2023-02-27T12:10:20.874Z,1.00
2023-02-27T12:12:53.667Z,1.00
2023-02-27T12:16:03.502Z,0.73
2023-02-27T12:18:38.068Z,1.00
2023-02-27T12:21:09.884Z,0.80
2023-02-27T12:23:59.231Z,0.65
2023-02-27T12:26:34.550Z,0.90
2023-02-27T12:29:25.368Z,1.00
2023-02-27T12:31:55.986Z,0.95
2023-02-27T12:34:44.576Z,1.00
2023-02-27T12:37:15.254Z,1.00
2023-02-27T12:39:44.717Z,1.15
2023-02-27T12:42:19.703Z,0.93
2023-02-27T12:44:50.318Z,0.80
2023-02-27T12:47:42.797Z,1.02
2023-02-27T12:50:19.402Z,0.85
2023-02-27T12:53:01.097Z,1.10
2023-02-27T12:55:31.595Z,1.05
2023-02-27T12:58:06.776Z,0.70
2023-02-27T13:00:46.307Z,0.90
2023-02-27T13:03:20.739Z,0.98
2023-02-27T13:06:16.970Z,0.98
2023-02-27T13:09:04.445Z,1.05
2023-02-27T13:11:40.674Z,1.05
2023-02-27T13:14:24.281Z,0.90
2023-02-27T13:16:56.826Z,0.90
2023-02-27T13:19:36.661Z,0.90
2023-02-27T13:22:31.602Z,0.50
2023-02-27T13:25:02.125Z,1.20
2023-02-27T13:27:34.308Z,1.08
2023-02-27T13:30:20.959Z,1.02
2023-02-27T13:33:14.076Z,0.65
2023-02-27T13:35:59.122Z,1.20
2023-02-27T13:38:43.410Z,1.02
2023-02-27T13:41:25.117Z,1.30
2023-02-27T13:43:53.453Z,1.25
2023-02-27T13:46:30.620Z,1.02
2023-02-27T13:49:09.183Z,1.15
2023-02-27T13:51:35.711Z,1.00
2023-02-27T13:54:14.817Z,0.90
2023-02-27T13:56:51.472Z,1.27
2023-02-27T13:59:36.554Z,1.00
2023-02-27T14:02:04.807Z,1.13
2023-02-27T14:04:35.694Z,1.02
2023-02-27T14:07:28.617Z,0.90
2023-02-27T14:10:06.344Z,1.17
2023-02-27T14:12:46.472Z,1.15
2023-02-27T14:15:16.148Z,0.70
2023-02-27T14:17:45.193Z,0.98
2023-02-27T14:20:40.313Z,1.13
2023-02-27T14:23:20.538Z,0.80
2023-02-27T14:25:49.965Z,1.13
2023-02-27T14:28:31.460Z,1.25
2023-02-27T14:31:13.724Z,1.17
2023-02-27T14:33:55.740Z,1.10
2023-02-27T14:36:28.452Z,1.45
2023-02-27T14:38:59.942Z,1.50
2023-02-27T14:41:41.653Z,1.65
2023-02-27T14:44:19.108Z,2.10
2023-02-27T14:46:45.849Z,2.05
2023-02-27T14:49:33.997Z,1.80
2023-02-27T14:52:22.014Z,2.03
2023-02-27T14:54:50.093Z,2.10
2023-02-27T14:57:27.071Z,2.20
2023-02-27T14:59:54.915Z,1.85
2023-02-27T15:02:32.523Z,1.58
2023-02-27T15:05:02.044Z,1.63
2023-02-27T15:07:31.497Z,1.35
2023-02-27T15:10:05.010Z,1.38
2023-02-27T15:12:37.088Z,1.20
2023-02-27T15:15:09.063Z,1.35
2023-02-27T15:17:43.772Z,1.52
2023-02-27T15:20:30.538Z,2.10
2023-02-27T15:22:58.962Z,2.33
2023-02-27T15:25:38.575Z,2.05
2023-02-27T15:28:23.986Z,1.90
2023-02-27T15:30:52.320Z,2.35
2023-02-27T15:33:24.648Z,1.58
2023-02-27T15:35:51.719Z,2.00
2023-02-27T15:38:33.704Z,2.00
2023-02-27T15:41:02.762Z,2.25
2023-02-27T15:43:30.946Z,2.65
2023-02-27T15:45:58.338Z,2.22
2023-02-27T15:48:25.698Z,1.90
2023-02-27T15:50:57.532Z,1.90
2023-02-27T15:53:26.541Z,1.60
2023-02-27T15:55:56.602Z,1.67
2023-02-27T15:58:31.560Z,1.00
2023-02-27T16:01:02.158Z,1.70
2023-02-27T16:03:38.752Z,1.63
2023-02-27T16:06:12.409Z,1.50
2023-02-27T16:08:46.299Z,1.77
2023-02-27T16:11:25.059Z,1.70
2023-02-27T16:13:52.141Z,1.70
2023-02-27T16:16:23.620Z,1.83
2023-02-27T16:18:56.148Z,1.70
2023-02-27T16:21:27.671Z,1.00
2023-02-27T16:23:54.956Z,1.50
2023-02-27T16:26:37.559Z,0.90
2023-02-27T16:29:21.673Z,1.25
2023-02-27T16:31:53.591Z,1.02
2023-02-27T16:34:44.520Z,1.50
2023-02-27T16:37:24.504Z,1.55
2023-02-27T16:39:52.183Z,1.58
2023-02-27T16:42:18.758Z,1.42
2023-02-27T16:44:45.412Z,1.65
2023-02-27T16:47:12.698Z,1.50
2023-02-27T16:49:40.538Z,1.45
2023-02-27T16:52:10.366Z,1.63
2023-02-27T16:54:37.074Z,1.55
2023-02-27T16:57:04.059Z,1.67
2023-02-27T16:59:36.249Z,1.55
2023-02-27T17:02:05.839Z,1.70
2023-02-27T17:04:32.820Z,2.10
2023-02-27T17:07:01.493Z,1.83
2023-02-27T17:09:29.287Z,1.55
2023-02-27T17:11:56.784Z,1.70
2023-02-27T17:14:24.309Z,1.95
2023-02-27T17:16:50.855Z,1.80
2023-02-27T17:19:17.490Z,1.85
2023-02-27T17:21:43.945Z,2.30
2023-02-27T17:24:10.592Z,2.50
2023-02-27T17:26:37.192Z,8.82
2023-02-27T17:29:07.298Z,5.80
2023-02-27T17:31:33.853Z,2.35
2023-02-27T17:34:00.406Z,2.17
2023-02-27T17:36:27.258Z,5.10
2023-02-27T17:39:00.498Z,4.45
2023-02-27T17:41:27.466Z,2.25
2023-02-27T17:43:56.012Z,2.40
2023-02-27T17:46:27.767Z,1.45
2023-02-27T17:48:56.237Z,2.33
2023-02-27T17:51:22.797Z,2.33
2023-02-27T17:53:49.438Z,1.73
2023-02-27T17:56:15.838Z,2.75
2023-02-27T17:58:45.348Z,2.40
2023-02-27T18:01:17.112Z,2.35
2023-02-27T18:03:46.650Z,2.28
2023-02-27T18:06:13.352Z,2.25
2023-02-27T18:08:39.917Z,2.42
2023-02-27T18:11:18.776Z,1.67
2023-02-27T18:13:46.135Z,2.25
2023-02-27T18:16:13.668Z,2.42
2023-02-27T18:18:42.466Z,3.88
2023-02-27T18:21:17.513Z,4.30
2023-02-27T18:23:45.152Z,2.60
2023-02-27T18:26:32.741Z,3.08
2023-02-27T18:29:02.788Z,4.07
2023-02-27T18:31:33.462Z,3.67
2023-02-27T18:34:01.375Z,4.05
2023-02-27T18:36:29.378Z,3.05
2023-02-27T18:38:56.353Z,2.97
2023-02-27T18:41:22.931Z,2.65
2023-02-27T18:43:49.676Z,2.25
2023-02-27T18:46:16.489Z,2.60
2023-02-27T18:48:44.622Z,1.95
2023-02-27T18:51:14.543Z,2.63
2023-02-27T18:53:49.126Z,1.80
2023-02-27T18:56:18.215Z,2.67
2023-02-27T18:58:45.356Z,2.40
2023-02-27T19:01:24.682Z,3.03
2023-02-27T19:03:53.271Z,3.15
2023-02-27T19:06:19.797Z,2.95
2023-02-27T19:08:46.510Z,3.00
2023-02-27T19:11:29.568Z,3.30
2023-02-27T19:13:57.266Z,3.38
2023-02-27T19:16:23.729Z,2.85
2023-02-27T19:18:50.258Z,2.53
2023-02-27T19:21:16.770Z,2.30
2023-02-27T19:23:43.419Z,2.63
2023-02-27T19:26:09.886Z,2.42
2023-02-27T19:28:36.416Z,2.58
2023-02-27T19:31:11.178Z,2.30
2023-02-27T19:33:39.389Z,2.70
2023-02-27T19:36:07.354Z,1.50
2023-02-27T19:38:33.817Z,2.33
2023-02-27T19:41:08.671Z,2.50
2023-02-27T19:43:36.423Z,2.30
2023-02-27T19:46:08.314Z,2.38
2023-02-27T19:48:36.206Z,2.40
2023-02-27T19:51:04.095Z,2.22
2023-02-27T19:53:31.599Z,2.95
2023-02-27T19:56:03.205Z,2.22
2023-02-27T19:58:30.662Z,2.50
2023-02-27T20:00:57.164Z,2.15
2023-02-27T20:03:23.728Z,2.45
2023-02-27T20:05:51.018Z,2.33
2023-02-27T20:08:18.515Z,2.33
2023-02-27T20:10:58.625Z,2.42
2023-02-27T20:13:25.808Z,2.28
2023-02-27T20:16:01.248Z,2.22
2023-02-27T20:18:29.904Z,2.03
2023-02-27T20:21:11.444Z,2.30
2023-02-27T20:23:40.351Z,2.72
2023-02-27T20:26:17.593Z,1.52
2023-02-27T20:28:44.749Z,2.50
2023-02-27T20:31:12.902Z,2.53
2023-02-27T20:33:40.470Z,2.40
2023-02-27T20:36:08.944Z,2.40
2023-02-27T20:38:39.179Z,2.38
2023-02-27T20:41:06.925Z,2.65
2023-02-27T20:43:33.840Z,2.67
2023-02-27T20:46:09.096Z,1.90
2023-02-27T20:48:35.698Z,2.45
2023-02-27T20:51:16.972Z,2.53
2023-02-27T20:53:46.842Z,2.60
2023-02-27T20:56:14.225Z,2.70
2023-02-27T20:58:41.014Z,2.50
2023-02-27T21:01:10.015Z,1.70
2023-02-27T21:03:41.475Z,2.72
2023-02-27T21:06:11.412Z,3.13
2023-02-27T21:08:39.724Z,2.63
2023-02-27T21:11:08.597Z,3.45
2023-02-27T21:13:36.320Z,3.42
2023-02-27T21:16:07.683Z,3.22
2023-02-27T21:18:34.202Z,3.25
2023-02-27T21:21:05.907Z,3.45
2023-02-27T21:23:41.269Z,2.97
2023-02-27T21:26:34.989Z,2.85
2023-02-27T21:29:10.694Z,2.92
2023-02-27T21:31:38.910Z,3.20
2023-02-27T21:34:13.848Z,3.00
2023-02-27T21:36:42.848Z,2.55
2023-02-27T21:39:14.064Z,2.55
2023-02-27T21:41:40.729Z,3.13
2023-02-27T21:44:09.706Z,3.20
2023-02-27T21:46:36.225Z,3.70
2023-02-27T21:49:03.044Z,2.58
2023-02-27T21:51:40.063Z,2.88
2023-02-27T21:54:09.031Z,2.70
2023-02-27T21:56:35.616Z,2.90
2023-02-27T21:59:02.284Z,2.47
2023-02-27T22:01:29.748Z,2.45
2023-02-27T22:03:57.404Z,2.55
2023-02-27T22:06:26.457Z,3.15
2023-02-27T22:08:55.068Z,2.83
2023-02-27T22:11:22.523Z,2.78
2023-02-27T22:13:48.994Z,3.03
2023-02-27T22:16:15.529Z,3.10
2023-02-27T22:18:42.633Z,2.83
2023-02-27T22:21:17.216Z,2.63
2023-02-27T22:23:46.786Z,2.97
2023-02-27T22:26:19.260Z,3.13
2023-02-27T22:28:45.780Z,2.78
2023-02-27T22:31:18.443Z,2.78
2023-02-27T22:33:47.220Z,3.25
2023-02-27T22:36:16.778Z,4.60
2023-02-27T22:38:43.829Z,4.43
2023-02-27T22:41:13.786Z,3.83
2023-02-27T22:43:40.785Z,2.97
2023-02-27T22:46:08.561Z,3.33
2023-02-27T22:48:35.685Z,3.50
2023-02-27T22:51:14.350Z,3.55
2023-02-27T22:53:45.982Z,3.28
2023-02-27T22:56:15.376Z,2.92
2023-02-27T22:58:43.991Z,3.53
2023-02-27T23:01:15.255Z,3.38
2023-02-27T23:06:12.146Z,3.00
2023-02-27T23:08:40.144Z,3.35
2023-02-27T23:11:06.950Z,2.92
2023-02-27T23:13:33.669Z,3.60
2023-02-27T23:16:01.563Z,2.75
2023-02-27T23:18:28.619Z,2.90
2023-02-27T23:20:55.097Z,3.47
2023-02-27T23:23:22.817Z,2.63
2023-02-27T23:25:49.296Z,3.10
2023-02-27T23:28:15.718Z,2.78
2023-02-27T23:30:42.179Z,3.15
2023-02-27T23:33:08.782Z,3.75
2023-02-27T23:35:35.200Z,3.78
2023-02-27T23:38:01.638Z,4.47
2023-02-27T23:40:28.308Z,2.58
2023-02-27T23:42:55.004Z,2.78
2023-02-27T23:45:24.104Z,3.67
2023-02-27T23:47:56.179Z,3.30
2023-02-27T23:50:25.716Z,3.55
2023-02-27T23:52:54.559Z,3.42
2023-02-27T23:55:21.905Z,3.25
2023-02-27T23:57:56.005Z,3.05
